Time;durP1;ratioP1;P1;durP2;ratioP2;P2;SDS_P1;SDS_P2;PMS_P1;PMS_P2;Temp;Humidity;BMP_temperature;BMP_pressure;BME280_temperature;BME280_humidity;BME280_pressure;Samples;Min_cycle;Max_cycle;Signal;HPM_P1;HPM_P2
2022/03/29 00:00:43;;;;;;;144.23;34.75;;;;;;;;;;5065569;28;20036;-47
2022/03/29 00:03:08;;;;;;;134.23;35.35;;;;;;;;;;5068587;28;20640;-47
2022/03/29 00:05:35;;;;;;;164.05;35.75;;;;;;;;;;5065511;28;20387;-48
2022/03/29 00:08:02;;;;;;;152.52;38.00;;;;;;;;;;5064415;28;20032;-46
2022/03/29 00:10:28;;;;;;;160.93;39.42;;;;;;;;;;5064969;28;20768;-48
2022/03/29 00:12:54;;;;;;;146.85;37.13;;;;;;;;;;5065767;28;20482;-47
2022/03/29 00:15:23;;;;;;;152.40;37.05;;;;;;;;;;5066699;28;20028;-47
2022/03/29 00:17:49;;;;;;;160.15;38.70;;;;;;;;;;5068973;28;20043;-47
2022/03/29 00:20:17;;;;;;;165.48;37.60;;;;;;;;;;5065315;28;20024;-47
2022/03/29 00:22:42;;;;;;;144.85;37.50;;;;;;;;;;5067395;28;20024;-47
2022/03/29 00:25:08;;;;;;;151.60;38.70;;;;;;;;;;5064992;28;20043;-47
2022/03/29 00:27:35;;;;;;;144.55;37.80;;;;;;;;;;5062674;28;20028;-47
2022/03/29 00:30:02;;;;;;;151.55;38.78;;;;;;;;;;5061605;28;20123;-47
2022/03/29 00:32:27;;;;;;;150.55;36.85;;;;;;;;;;5068662;28;20035;-47
2022/03/29 00:34:53;;;;;;;146.23;37.35;;;;;;;;;;5063778;28;20032;-46
2022/03/29 00:37:18;;;;;;;157.27;36.33;;;;;;;;;;5064145;28;20105;-47
2022/03/29 00:39:44;;;;;;;160.57;38.22;;;;;;;;;;5068081;28;20064;-48
2022/03/29 00:42:09;;;;;;;167.02;37.92;;;;;;;;;;5064727;28;20474;-47
2022/03/29 00:44:36;;;;;;;163.55;38.10;;;;;;;;;;5063055;28;20499;-48
2022/03/29 00:47:02;;;;;;;161.07;38.47;;;;;;;;;;5062749;28;20494;-47
2022/03/29 00:49:28;;;;;;;163.52;38.60;;;;;;;;;;5069275;28;20059;-47
2022/03/29 00:51:58;;;;;;;190.40;41.38;;;;;;;;;;5063271;28;20040;-47
2022/03/29 00:54:28;;;;;;;171.32;40.28;;;;;;;;;;5062345;28;20047;-48
2022/03/29 00:56:57;;;;;;;140.80;37.45;;;;;;;;;;5068778;28;20037;-47
2022/03/29 00:59:24;;;;;;;137.15;38.97;;;;;;;;;;5068073;28;20028;-48
2022/03/29 01:01:49;;;;;;;154.80;39.58;;;;;;;;;;5063746;28;20490;-47
2022/03/29 01:04:15;;;;;;;139.43;37.00;;;;;;;;;;5063820;28;20026;-47
2022/03/29 01:06:43;;;;;;;151.90;39.85;;;;;;;;;;5062686;28;20056;-47
2022/03/29 01:09:08;;;;;;;159.68;39.20;;;;;;;;;;5060315;28;20025;-50
2022/03/29 01:11:35;;;;;;;151.32;39.67;;;;;;;;;;5054143;28;20066;-47
2022/03/29 01:14:00;;;;;;;152.00;40.40;;;;;;;;;;5058515;28;20042;-47
2022/03/29 01:19:12;;;;;;;161.30;40.40;;;;;;;;;;5059452;28;20043;-48
2022/03/29 01:21:39;;;;;;;169.82;43.55;;;;;;;;;;5061654;28;20549;-48
2022/03/29 01:24:08;;;;;;;162.88;42.60;;;;;;;;;;5063829;28;20363;-47
2022/03/29 01:26:34;;;;;;;182.70;43.45;;;;;;;;;;5063739;28;20036;-47
2022/03/29 01:29:00;;;;;;;185.75;43.15;;;;;;;;;;5063819;28;20169;-48
2022/03/29 01:31:26;;;;;;;182.25;44.15;;;;;;;;;;5063596;28;20538;-47
2022/03/29 01:33:51;;;;;;;182.32;42.42;;;;;;;;;;5063782;28;20119;-47
2022/03/29 01:36:17;;;;;;;182.30;42.47;;;;;;;;;;5062206;28;20032;-47
2022/03/29 01:38:42;;;;;;;186.98;44.58;;;;;;;;;;5065112;28;20021;-47
2022/03/29 01:41:10;;;;;;;186.30;43.50;;;;;;;;;;5063227;28;20504;-47
2022/03/29 01:43:36;;;;;;;193.48;43.65;;;;;;;;;;5064498;28;20024;-47
2022/03/29 01:46:02;;;;;;;195.00;44.90;;;;;;;;;;5062061;28;20037;-48
2022/03/29 01:48:27;;;;;;;206.82;45.45;;;;;;;;;;5064158;28;20681;-47
2022/03/29 01:50:53;;;;;;;200.75;44.47;;;;;;;;;;5062192;28;20390;-48
2022/03/29 01:53:27;;;;;;;213.55;44.35;;;;;;;;;;5060889;28;20029;-47
2022/03/29 01:56:00;;;;;;;204.23;44.05;;;;;;;;;;5061436;28;20123;-47
2022/03/29 01:58:26;;;;;;;;;;;;;;;;;;5067719;28;20032;-47
2022/03/29 02:00:52;;;;;;;212.68;45.25;;;;;;;;;;5058818;28;19987;-47
2022/03/29 02:03:17;;;;;;;220.75;45.25;;;;;;;;;;5062966;28;23264;-47
2022/03/29 02:05:43;;;;;;;235.55;47.67;;;;;;;;;;5063983;28;20147;-48
2022/03/29 02:08:08;;;;;;;246.95;49.03;;;;;;;;;;5061768;28;20024;-47
2022/03/29 02:10:35;;;;;;;235.63;48.00;;;;;;;;;;5063868;28;20078;-47
2022/03/29 02:13:01;;;;;;;215.52;44.78;;;;;;;;;;5061785;28;20698;-47
2022/03/29 02:15:26;;;;;;;238.15;48.22;;;;;;;;;;5060487;28;20036;-47
2022/03/29 02:17:52;;;;;;;244.80;49.90;;;;;;;;;;5065516;28;20032;-48
2022/03/29 02:20:21;;;;;;;214.63;43.28;;;;;;;;;;5063314;28;20029;-47
2022/03/29 02:22:47;;;;;;;229.82;45.05;;;;;;;;;;5064656;28;20025;-47
2022/03/29 02:25:13;;;;;;;225.93;44.67;;;;;;;;;;5065175;28;20056;-47
2022/03/29 02:27:43;;;;;;;237.13;46.83;;;;;;;;;;5067564;28;20059;-47
2022/03/29 02:30:12;;;;;;;238.60;45.55;;;;;;;;;;5065659;28;20029;-49
2022/03/29 02:32:38;;;;;;;235.27;43.03;;;;;;;;;;5067548;28;20028;-47
2022/03/29 02:35:05;;;;;;;241.77;45.28;;;;;;;;;;5062068;28;20024;-47
2022/03/29 02:37:30;;;;;;;255.27;44.03;;;;;;;;;;5069960;28;20039;-47
2022/03/29 02:39:56;;;;;;;238.48;42.97;;;;;;;;;;5066882;28;20028;-49
2022/03/29 02:42:21;;;;;;;226.07;43.05;;;;;;;;;;5066804;28;20028;-47
2022/03/29 02:44:47;;;;;;;226.55;42.83;;;;;;;;;;5067067;28;20040;-47
2022/03/29 02:47:12;;;;;;;230.20;43.75;;;;;;;;;;5063980;28;20426;-48
2022/03/29 02:49:38;;;;;;;237.65;43.90;;;;;;;;;;5063583;28;20453;-47
2022/03/29 02:52:04;;;;;;;261.75;44.03;;;;;;;;;;5064909;28;20055;-47
2022/03/29 02:54:30;;;;;;;243.07;42.47;;;;;;;;;;5067232;28;20033;-48
2022/03/29 02:56:55;;;;;;;251.30;44.22;;;;;;;;;;5066535;28;20025;-47
2022/03/29 02:59:21;;;;;;;259.33;43.90;;;;;;;;;;5064171;28;20029;-47
2022/03/29 03:01:46;;;;;;;258.00;45.22;;;;;;;;;;5066806;28;20075;-49
2022/03/29 03:04:15;;;;;;;262.23;45.15;;;;;;;;;;5064418;28;20024;-47
2022/03/29 03:06:41;;;;;;;267.75;46.08;;;;;;;;;;5066313;28;20418;-48
2022/03/29 03:09:07;;;;;;;248.00;43.85;;;;;;;;;;5075042;28;20024;-47
2022/03/29 03:11:34;;;;;;;243.20;42.63;;;;;;;;;;5063153;28;20028;-47
2022/03/29 03:14:00;;;;;;;252.43;45.85;;;;;;;;;;5064057;28;20045;-48
2022/03/29 03:16:26;;;;;;;235.52;44.35;;;;;;;;;;5063964;28;20063;-47
2022/03/29 03:18:51;;;;;;;260.98;44.28;;;;;;;;;;5062487;28;20517;-47
2022/03/29 03:21:17;;;;;;;233.25;44.55;;;;;;;;;;5059077;28;20028;-47
2022/03/29 03:23:42;;;;;;;256.83;45.33;;;;;;;;;;5057501;28;20039;-48
2022/03/29 03:26:08;;;;;;;235.90;46.45;;;;;;;;;;5055906;28;20434;-47
2022/03/29 03:28:33;;;;;;;207.13;40.50;;;;;;;;;;5056847;28;21382;-47
2022/03/29 03:30:59;;;;;;;223.65;42.60;;;;;;;;;;5060177;28;20048;-47
2022/03/29 03:33:24;;;;;;;229.40;43.72;;;;;;;;;;5058060;28;20511;-47
2022/03/29 03:35:50;;;;;;;214.38;41.60;;;;;;;;;;5057411;28;20478;-47
2022/03/29 03:38:15;;;;;;;193.57;40.50;;;;;;;;;;5059000;28;20523;-47
2022/03/29 03:40:41;;;;;;;200.40;41.08;;;;;;;;;;5060067;28;20028;-47
2022/03/29 03:43:07;;;;;;;190.95;39.75;;;;;;;;;;5058553;28;20028;-47
2022/03/29 03:45:33;;;;;;;207.43;43.17;;;;;;;;;;5057651;28;20024;-47
2022/03/29 03:47:58;;;;;;;195.20;41.30;;;;;;;;;;5059577;28;20036;-48
2022/03/29 03:50:24;;;;;;;200.98;40.70;;;;;;;;;;5056135;28;20050;-47
2022/03/29 03:52:51;;;;;;;196.55;41.70;;;;;;;;;;5059372;28;20032;-47
2022/03/29 03:55:18;;;;;;;199.70;40.88;;;;;;;;;;5059133;28;20039;-48
2022/03/29 03:57:44;;;;;;;194.20;41.15;;;;;;;;;;5061795;28;20039;-47
2022/03/29 04:00:11;;;;;;;189.45;41.78;;;;;;;;;;5059513;28;20092;-47
2022/03/29 04:02:37;;;;;;;190.40;40.38;;;;;;;;;;5058066;28;20418;-47
2022/03/29 04:05:03;;;;;;;194.93;41.40;;;;;;;;;;5056942;28;20497;-47
2022/03/29 04:07:28;;;;;;;195.13;43.25;;;;;;;;;;5058895;28;20052;-47
2022/03/29 04:09:54;;;;;;;176.27;40.67;;;;;;;;;;5059255;28;20395;-47
2022/03/29 04:12:20;;;;;;;170.18;40.00;;;;;;;;;;5060153;28;20048;-47
2022/03/29 04:14:46;;;;;;;205.00;40.78;;;;;;;;;;5057668;28;20391;-48
2022/03/29 04:17:12;;;;;;;180.57;43.30;;;;;;;;;;5056862;28;20269;-48
2022/03/29 04:19:38;;;;;;;194.32;40.42;;;;;;;;;;5059618;28;20086;-47
2022/03/29 04:22:04;;;;;;;191.10;40.75;;;;;;;;;;5057995;28;20031;-47
2022/03/29 04:24:30;;;;;;;191.23;40.25;;;;;;;;;;5057878;28;20600;-47
2022/03/29 04:26:56;;;;;;;191.48;42.65;;;;;;;;;;5058266;28;20232;-47
2022/03/29 04:29:22;;;;;;;188.18;42.13;;;;;;;;;;5057571;28;20036;-47
2022/03/29 04:31:48;;;;;;;182.20;39.17;;;;;;;;;;5058488;28;20115;-47
2022/03/29 04:34:14;;;;;;;195.90;40.80;;;;;;;;;;5056576;28;20284;-47
2022/03/29 04:36:40;;;;;;;193.82;40.53;;;;;;;;;;5057661;28;20071;-48
2022/03/29 04:39:05;;;;;;;183.80;42.17;;;;;;;;;;5057522;28;20071;-47
2022/03/29 04:41:31;;;;;;;184.13;41.20;;;;;;;;;;5057375;28;20123;-48
2022/03/29 04:43:57;;;;;;;189.23;41.03;;;;;;;;;;5058619;28;20035;-47
2022/03/29 04:46:23;;;;;;;173.23;41.15;;;;;;;;;;5056899;28;20047;-47
2022/03/29 04:48:52;;;;;;;190.38;40.78;;;;;;;;;;5057027;28;20465;-48
2022/03/29 04:51:17;;;;;;;170.98;38.78;;;;;;;;;;5054319;28;20031;-47
2022/03/29 04:53:43;;;;;;;193.73;40.75;;;;;;;;;;5057076;28;20445;-47
2022/03/29 04:56:08;;;;;;;188.55;40.75;;;;;;;;;;5056078;28;20558;-47
2022/03/29 04:58:34;;;;;;;190.18;42.10;;;;;;;;;;5058218;28;20033;-48
2022/03/29 05:00:59;;;;;;;174.52;39.60;;;;;;;;;;5056577;28;20048;-48
2022/03/29 05:03:25;;;;;;;160.90;37.88;;;;;;;;;;5057898;28;20098;-49
2022/03/29 05:05:51;;;;;;;181.63;40.38;;;;;;;;;;5053774;28;20183;-47
2022/03/29 05:08:16;;;;;;;170.05;38.08;;;;;;;;;;5055671;28;20035;-48
2022/03/29 05:10:42;;;;;;;164.55;37.90;;;;;;;;;;5058371;28;20066;-48
2022/03/29 05:13:09;;;;;;;155.23;36.38;;;;;;;;;;5055757;28;20028;-47
2022/03/29 05:15:35;;;;;;;142.77;34.95;;;;;;;;;;5056634;28;20442;-47
2022/03/29 05:18:01;;;;;;;148.32;36.78;;;;;;;;;;5055316;28;20566;-47
2022/03/29 05:20:27;;;;;;;141.50;34.63;;;;;;;;;;5056017;28;20036;-47
2022/03/29 05:22:55;;;;;;;133.15;34.70;;;;;;;;;;5059269;28;20107;-47
2022/03/29 05:25:22;;;;;;;143.45;34.15;;;;;;;;;;5055392;28;20064;-47
2022/03/29 05:27:49;;;;;;;143.88;36.38;;;;;;;;;;5056206;28;20104;-48
2022/03/29 05:30:15;;;;;;;149.55;35.22;;;;;;;;;;5055515;28;20545;-48
2022/03/29 05:32:41;;;;;;;127.78;33.10;;;;;;;;;;5054023;28;20051;-47
2022/03/29 05:35:08;;;;;;;130.23;34.45;;;;;;;;;;5055425;28;20102;-48
2022/03/29 05:37:38;;;;;;;123.57;34.22;;;;;;;;;;5056427;28;20922;-47
2022/03/29 05:40:06;;;;;;;119.68;34.00;;;;;;;;;;5056403;28;20029;-47
2022/03/29 05:42:37;;;;;;;108.10;31.65;;;;;;;;;;5055151;28;20437;-47
2022/03/29 05:45:02;;;;;;;113.72;33.10;;;;;;;;;;5056158;28;20036;-47
2022/03/29 05:50:12;;;;;;;115.40;31.92;;;;;;;;;;5052394;28;20091;-48
2022/03/29 05:52:38;;;;;;;105.47;31.27;;;;;;;;;;5054212;28;20530;-47
2022/03/29 05:55:04;;;;;;;102.57;30.70;;;;;;;;;;5056041;28;20036;-48
2022/03/29 05:57:30;;;;;;;118.57;31.52;;;;;;;;;;5054452;28;20046;-48
2022/03/29 05:59:56;;;;;;;114.18;32.05;;;;;;;;;;5054530;28;20028;-50
2022/03/29 06:02:24;;;;;;;108.50;30.55;;;;;;;;;;5058022;28;20124;-47
2022/03/29 06:04:50;;;;;;;115.20;32.75;;;;;;;;;;5056239;28;20029;-47
2022/03/29 06:07:16;;;;;;;105.72;29.75;;;;;;;;;;5054851;28;20048;-47
2022/03/29 06:09:41;;;;;;;111.70;31.05;;;;;;;;;;5056010;28;20090;-47
2022/03/29 06:12:07;;;;;;;104.20;32.13;;;;;;;;;;5053682;28;20120;-47
2022/03/29 06:14:32;;;;;;;101.28;31.25;;;;;;;;;;5056784;28;20132;-49
2022/03/29 06:17:00;;;;;;;94.75;30.45;;;;;;;;;;5057326;28;20037;-48
2022/03/29 06:19:25;;;;;;;100.20;29.08;;;;;;;;;;5055846;28;20043;-50
2022/03/29 06:21:51;;;;;;;102.03;31.27;;;;;;;;;;5055141;28;20037;-49
2022/03/29 06:24:16;;;;;;;101.65;31.23;;;;;;;;;;5055695;28;20028;-50
2022/03/29 06:26:42;;;;;;;90.50;29.77;;;;;;;;;;5054900;28;20109;-49
2022/03/29 06:29:09;;;;;;;94.25;30.38;;;;;;;;;;5055609;28;20418;-48
2022/03/29 06:31:36;;;;;;;101.75;30.45;;;;;;;;;;5053937;28;20028;-49
2022/03/29 06:34:02;;;;;;;90.53;30.02;;;;;;;;;;5053077;28;20028;-48
2022/03/29 06:36:28;;;;;;;106.05;31.95;;;;;;;;;;5053648;28;20029;-49
2022/03/29 06:38:53;;;;;;;95.10;29.00;;;;;;;;;;5054056;28;20039;-47
2022/03/29 06:41:19;;;;;;;91.05;30.60;;;;;;;;;;5054806;28;20131;-47
2022/03/29 06:43:45;;;;;;;94.35;31.45;;;;;;;;;;5050816;28;20558;-47
2022/03/29 06:46:11;;;;;;;105.03;34.42;;;;;;;;;;5051911;28;20042;-47
2022/03/29 06:48:41;;;;;;;101.25;32.30;;;;;;;;;;5054945;28;20131;-47
2022/03/29 06:51:09;;;;;;;97.88;30.67;;;;;;;;;;5053779;28;20475;-49
2022/03/29 06:53:35;;;;;;;89.78;29.45;;;;;;;;;;5056355;28;20137;-47
2022/03/29 06:56:02;;;;;;;87.32;28.92;;;;;;;;;;5061058;28;20059;-47
2022/03/29 06:58:28;;;;;;;76.45;26.23;;;;;;;;;;5057818;28;20035;-50
2022/03/29 07:00:54;;;;;;;81.78;28.85;;;;;;;;;;5056539;28;20036;-49
2022/03/29 07:03:21;;;;;;;91.70;27.90;;;;;;;;;;5065526;28;20037;-48
2022/03/29 07:05:48;;;;;;;74.60;27.13;;;;;;;;;;5056404;28;20049;-50
2022/03/29 07:08:16;;;;;;;82.10;27.08;;;;;;;;;;5059363;28;20036;-48
2022/03/29 07:13:26;;;;;;;66.07;23.70;;;;;;;;;;5071381;28;20420;-49
2022/03/29 07:15:52;;;;;;;73.07;25.75;;;;;;;;;;5067614;28;20482;-47
2022/03/29 07:18:18;;;;;;;66.72;24.13;;;;;;;;;;5067179;28;20037;-48
2022/03/29 07:20:44;;;;;;;70.22;24.30;;;;;;;;;;5066818;28;20024;-47
2022/03/29 07:23:10;;;;;;;67.55;24.30;;;;;;;;;;5059690;28;20032;-50
2022/03/29 07:25:37;;;;;;;61.17;22.50;;;;;;;;;;5062818;28;20037;-48
2022/03/29 07:28:03;;;;;;;60.22;22.33;;;;;;;;;;5065752;28;20473;-51
2022/03/29 07:30:29;;;;;;;63.08;22.98;;;;;;;;;;5070351;28;20031;-48
2022/03/29 07:32:57;;;;;;;66.78;22.52;;;;;;;;;;5065606;28;20037;-49
2022/03/29 07:35:25;;;;;;;66.75;21.80;;;;;;;;;;5065353;28;20138;-48
2022/03/29 07:37:51;;;;;;;65.32;22.35;;;;;;;;;;5064374;28;20153;-47
2022/03/29 07:40:19;;;;;;;67.78;22.45;;;;;;;;;;5069469;28;20020;-48
2022/03/29 07:42:45;;;;;;;60.00;22.58;;;;;;;;;;5069448;28;20040;-48
2022/03/29 07:45:11;;;;;;;60.95;22.90;;;;;;;;;;5074684;28;20027;-48
2022/03/29 07:47:38;;;;;;;53.75;22.80;;;;;;;;;;5068074;28;20032;-48
2022/03/29 07:50:07;;;;;;;59.83;22.30;;;;;;;;;;5063919;28;21829;-48
2022/03/29 07:52:38;;;;;;;59.25;23.50;;;;;;;;;;5066663;28;20415;-48
2022/03/29 07:55:06;;;;;;;52.88;21.92;;;;;;;;;;5067269;28;20035;-48
2022/03/29 07:57:32;;;;;;;58.30;21.42;;;;;;;;;;5080325;28;20032;-48
2022/03/29 07:59:57;;;;;;;66.97;23.92;;;;;;;;;;5067976;28;20040;-48
2022/03/29 08:02:23;;;;;;;61.88;21.88;;;;;;;;;;5063786;28;20032;-47
2022/03/29 08:04:48;;;;;;;58.13;21.60;;;;;;;;;;5063253;28;20024;-54
2022/03/29 08:07:14;;;;;;;64.70;21.88;;;;;;;;;;5058290;28;20048;-48
2022/03/29 08:09:39;;;;;;;54.55;21.52;;;;;;;;;;5064521;28;20098;-50
2022/03/29 08:12:05;;;;;;;62.75;21.45;;;;;;;;;;5065599;28;20490;-48
2022/03/29 08:14:31;;;;;;;61.80;21.08;;;;;;;;;;5064997;28;20090;-49
2022/03/29 08:16:56;;;;;;;60.22;23.10;;;;;;;;;;5061828;28;20028;-49
2022/03/29 08:19:23;;;;;;;60.05;21.90;;;;;;;;;;5066908;28;20113;-48
2022/03/29 08:21:49;;;;;;;68.03;23.55;;;;;;;;;;5067342;28;20036;-49
2022/03/29 08:24:25;;;;;;;65.72;22.40;;;;;;;;;;5065323;28;20024;-48
2022/03/29 08:26:53;;;;;;;74.47;23.75;;;;;;;;;;5059942;28;20041;-48
2022/03/29 08:29:21;;;;;;;77.25;23.98;;;;;;;;;;5059632;28;20356;-48
2022/03/29 08:31:49;;;;;;;76.35;24.15;;;;;;;;;;5064990;28;20372;-48
2022/03/29 08:34:15;;;;;;;78.75;23.90;;;;;;;;;;5066320;28;20025;-48
2022/03/29 08:36:41;;;;;;;67.43;22.45;;;;;;;;;;5065754;28;20029;-49
2022/03/29 08:39:09;;;;;;;67.28;23.35;;;;;;;;;;5062278;28;20052;-48
2022/03/29 08:41:37;;;;;;;64.78;24.35;;;;;;;;;;5061534;28;20063;-49
2022/03/29 08:44:04;;;;;;;71.22;23.67;;;;;;;;;;5065223;28;20639;-49
2022/03/29 08:46:41;;;;;;;70.15;23.67;;;;;;;;;;5065316;28;20158;-48
2022/03/29 08:49:08;;;;;;;70.53;25.00;;;;;;;;;;5071069;28;20715;-49
2022/03/29 08:51:36;;;;;;;79.13;24.55;;;;;;;;;;5065175;28;20379;-48
2022/03/29 08:54:01;;;;;;;69.93;24.13;;;;;;;;;;5070509;28;20117;-50
2022/03/29 08:56:27;;;;;;;66.15;23.42;;;;;;;;;;5065012;28;20142;-50
2022/03/29 08:58:53;;;;;;;82.22;26.23;;;;;;;;;;5066775;28;20081;-50
2022/03/29 09:01:19;;;;;;;76.72;24.30;;;;;;;;;;5066364;28;20363;-49
2022/03/29 09:03:46;;;;;;;80.65;23.92;;;;;;;;;;5065019;28;20032;-49
2022/03/29 09:06:11;;;;;;;79.47;24.52;;;;;;;;;;5066492;28;20502;-49
2022/03/29 09:08:43;;;;;;;69.82;24.73;;;;;;;;;;5067641;28;20047;-51
2022/03/29 09:11:09;;;;;;;76.35;24.20;;;;;;;;;;5066967;28;20032;-48
2022/03/29 09:13:34;;;;;;;75.50;26.05;;;;;;;;;;5060586;28;20040;-50
2022/03/29 09:16:03;;;;;;;64.15;23.35;;;;;;;;;;5067701;28;20158;-49
2022/03/29 09:18:30;;;;;;;72.85;23.65;;;;;;;;;;5066883;28;20553;-49
2022/03/29 09:21:11;;;;;;;87.85;24.98;;;;;;;;;;5065320;28;20064;-49
2022/03/29 09:23:37;;;;;;;66.30;24.25;;;;;;;;;;5066262;28;20100;-49
2022/03/29 09:26:03;;;;;;;62.30;23.80;;;;;;;;;;5062404;28;20051;-49
2022/03/29 09:28:38;;;;;;;71.47;24.10;;;;;;;;;;5063720;28;20029;-52
2022/03/29 09:31:36;;;;;;;64.45;23.52;;;;;;;;;;5064759;28;21291;-49
2022/03/29 09:34:10;;;;;;;71.90;21.65;;;;;;;;;;5023094;28;20056;-50
2022/03/29 09:36:44;;;;;;;63.88;23.00;;;;;;;;;;5064237;28;20039;-50
2022/03/29 09:39:39;;;;;;;71.38;24.58;;;;;;;;;;5058956;28;20059;-50
2022/03/29 09:42:15;;;;;;;68.28;23.08;;;;;;;;;;5081042;28;20430;-58
2022/03/29 09:44:45;;;;;;;64.72;23.45;;;;;;;;;;5064430;28;20028;-49
2022/03/29 09:47:13;;;;;;;74.68;24.02;;;;;;;;;;5062175;28;20646;-48
2022/03/29 09:49:57;;;;;;;82.00;26.65;;;;;;;;;;5065234;28;20032;-49
2022/03/29 09:52:28;;;;;;;62.58;23.10;;;;;;;;;;5059153;28;20036;-50
2022/03/29 09:55:21;;;;;;;59.42;23.38;;;;;;;;;;5062379;28;20052;-49
2022/03/29 09:57:55;;;;;;;67.40;22.08;;;;;;;;;;5058264;28;20016;-54
2022/03/29 10:00:29;;;;;;;65.07;23.42;;;;;;;;;;5064752;28;20059;-50
2022/03/29 10:02:55;;;;;;;65.75;22.58;;;;;;;;;;5069834;28;20035;-50
2022/03/29 10:05:23;;;;;;;60.58;22.60;;;;;;;;;;5057570;28;22913;-52
2022/03/29 10:10:53;;;;;;;67.93;23.02;;;;;;;;;;5068296;28;20133;-53
2022/03/29 10:13:23;;;;;;;70.05;22.20;;;;;;;;;;5065316;28;20501;-54
2022/03/29 10:15:49;;;;;;;60.50;24.55;;;;;;;;;;5059898;28;20059;-53
2022/03/29 10:18:16;;;;;;;59.70;23.48;;;;;;;;;;5062329;28;20498;-53
2022/03/29 10:20:42;;;;;;;57.85;21.92;;;;;;;;;;5063666;28;20032;-53
2022/03/29 10:23:08;;;;;;;56.28;23.13;;;;;;;;;;5064979;28;20043;-55
2022/03/29 10:25:34;;;;;;;52.35;22.10;;;;;;;;;;5064894;28;20079;-53
2022/03/29 10:28:02;;;;;;;54.50;24.13;;;;;;;;;;5065908;28;20135;-53
2022/03/29 10:30:35;;;;;;;57.08;22.38;;;;;;;;;;5060890;28;20376;-53
2022/03/29 10:33:19;;;;;;;57.45;23.75;;;;;;;;;;5063769;28;20586;-52
2022/03/29 10:36:05;;;;;;;53.50;22.42;;;;;;;;;;5063003;28;20136;-54
2022/03/29 10:38:46;;;;;;;59.40;23.20;;;;;;;;;;5061500;28;20023;-50
2022/03/29 10:41:43;;;;;;;69.15;24.08;;;;;;;;;;5064342;28;20040;-50
2022/03/29 10:44:10;;;;;;;59.40;23.98;;;;;;;;;;5058622;28;20028;-52
2022/03/29 10:46:47;;;;;;;49.08;21.75;;;;;;;;;;5071106;28;20051;-50
2022/03/29 10:49:22;;;;;;;54.45;22.10;;;;;;;;;;5066514;28;20035;-50
2022/03/29 10:51:49;;;;;;;57.28;22.33;;;;;;;;;;5064155;28;20032;-52
2022/03/29 10:54:28;;;;;;;52.78;21.98;;;;;;;;;;5067549;28;20036;-50
2022/03/29 10:57:07;;;;;;;51.40;23.13;;;;;;;;;;5070223;28;20106;-50
2022/03/29 10:59:36;;;;;;;55.90;22.48;;;;;;;;;;5063947;28;20029;-51
2022/03/29 11:02:22;;;;;;;50.75;22.77;;;;;;;;;;5064134;28;20043;-50
2022/03/29 11:05:10;;;;;;;55.08;22.33;;;;;;;;;;5064252;28;20047;-50
2022/03/29 11:07:37;;;;;;;49.95;22.27;;;;;;;;;;5068565;28;20084;-53
2022/03/29 11:10:23;;;;;;;53.83;23.02;;;;;;;;;;5066593;28;20036;-52
2022/03/29 11:12:51;;;;;;;61.45;24.23;;;;;;;;;;5066085;28;20028;-50
2022/03/29 11:15:38;;;;;;;60.33;24.92;;;;;;;;;;5066121;28;20025;-51
2022/03/29 11:18:33;;;;;;;65.55;27.33;;;;;;;;;;5064445;28;20032;-50
2022/03/29 11:21:03;;;;;;;56.50;24.92;;;;;;;;;;5068358;28;20483;-50
2022/03/29 11:23:40;;;;;;;56.35;23.63;;;;;;;;;;5068183;28;20444;-51
2022/03/29 11:26:08;;;;;;;52.95;24.40;;;;;;;;;;5069335;28;20502;-50
2022/03/29 11:28:34;;;;;;;58.90;25.05;;;;;;;;;;5063091;28;20031;-51
2022/03/29 11:30:59;;;;;;;56.92;24.00;;;;;;;;;;5064349;28;20028;-50
2022/03/29 11:33:35;;;;;;;56.60;23.52;;;;;;;;;;5051344;28;20032;-52
2022/03/29 11:36:05;;;;;;;49.95;22.30;;;;;;;;;;5064317;28;20068;-50
2022/03/29 11:38:36;;;;;;;50.55;23.50;;;;;;;;;;5064893;28;20089;-50
2022/03/29 11:41:03;;;;;;;49.07;23.73;;;;;;;;;;5064206;28;20064;-53
2022/03/29 11:43:28;;;;;;;53.45;23.83;;;;;;;;;;5069051;28;20032;-53
2022/03/29 11:45:55;;;;;;;54.03;24.42;;;;;;;;;;5063298;28;20567;-50
2022/03/29 11:48:24;;;;;;;51.95;24.48;;;;;;;;;;5067137;28;20547;-52
2022/03/29 11:50:58;;;;;;;51.78;24.95;;;;;;;;;;5070859;28;20404;-52
2022/03/29 11:53:34;;;;;;;60.70;25.23;;;;;;;;;;5065920;28;20115;-53
2022/03/29 11:56:01;;;;;;;52.90;25.08;;;;;;;;;;5059646;28;20080;-53
2022/03/29 11:58:38;;;;;;;56.28;24.83;;;;;;;;;;5070548;28;20033;-53
2022/03/29 12:01:07;;;;;;;47.90;23.65;;;;;;;;;;5066110;28;20030;-53
2022/03/29 12:04:07;;;;;;;56.75;25.75;;;;;;;;;;5063960;28;20029;-54
2022/03/29 12:06:48;;;;;;;57.67;26.73;;;;;;;;;;5062614;28;20052;-53
2022/03/29 12:09:21;;;;;;;63.67;28.65;;;;;;;;;;5063032;28;20024;-53
2022/03/29 12:11:46;;;;;;;57.63;27.75;;;;;;;;;;5065124;28;20028;-50
2022/03/29 12:14:20;;;;;;;65.45;29.40;;;;;;;;;;5064306;28;20033;-52
2022/03/29 12:16:51;;;;;;;65.32;29.17;;;;;;;;;;5064735;28;20040;-51
2022/03/29 12:19:17;;;;;;;65.47;30.15;;;;;;;;;;5066245;28;20068;-54
2022/03/29 12:21:48;;;;;;;63.25;29.75;;;;;;;;;;5066057;28;20028;-54
2022/03/29 12:24:15;;;;;;;62.17;29.90;;;;;;;;;;5065380;28;20028;-53
2022/03/29 12:26:43;;;;;;;65.47;31.30;;;;;;;;;;5065110;28;20101;-52
2022/03/29 12:29:14;;;;;;;55.58;29.90;;;;;;;;;;5062860;28;20036;-53
2022/03/29 12:31:40;;;;;;;61.60;31.88;;;;;;;;;;5063273;28;20036;-53
2022/03/29 12:34:07;;;;;;;63.70;32.20;;;;;;;;;;5067923;28;20106;-54
2022/03/29 12:36:32;;;;;;;64.50;29.77;;;;;;;;;;5060804;28;20596;-53
2022/03/29 12:39:06;;;;;;;63.60;31.13;;;;;;;;;;5061647;28;20044;-53
2022/03/29 12:41:52;;;;;;;61.72;30.85;;;;;;;;;;5060072;28;20016;-55
2022/03/29 12:44:31;;;;;;;67.03;35.53;;;;;;;;;;5063290;28;20020;-55
2022/03/29 12:46:58;;;;;;;68.05;35.13;;;;;;;;;;5058693;28;20025;-54
2022/03/29 12:49:24;;;;;;;60.53;32.80;;;;;;;;;;5061510;28;20028;-54
2022/03/29 12:52:00;;;;;;;66.63;32.97;;;;;;;;;;5061894;28;20090;-54
2022/03/29 12:54:46;;;;;;;60.72;31.00;;;;;;;;;;5061980;28;20108;-53
2022/03/29 12:57:14;;;;;;;60.53;31.30;;;;;;;;;;5064172;28;20032;-54
2022/03/29 12:59:42;;;;;;;62.50;32.40;;;;;;;;;;5065906;28;20044;-55
2022/03/29 13:02:12;;;;;;;63.28;35.13;;;;;;;;;;5062624;28;20441;-55
2022/03/29 13:04:40;;;;;;;62.92;34.20;;;;;;;;;;5063031;28;20064;-53
2022/03/29 13:07:07;;;;;;;69.90;36.30;;;;;;;;;;5060872;28;20074;-55
2022/03/29 13:09:34;;;;;;;69.15;35.85;;;;;;;;;;5064844;28;20120;-51
2022/03/29 13:12:14;;;;;;;78.72;38.25;;;;;;;;;;5062699;28;20040;-53
2022/03/29 13:14:41;;;;;;;78.72;38.47;;;;;;;;;;5062282;28;20035;-53
2022/03/29 13:17:07;;;;;;;68.38;37.78;;;;;;;;;;5077948;28;20078;-53
2022/03/29 13:19:33;;;;;;;76.72;39.42;;;;;;;;;;5060983;28;20035;-51
2022/03/29 13:22:01;;;;;;;79.45;39.40;;;;;;;;;;5063604;28;20024;-52
2022/03/29 13:24:35;;;;;;;74.68;38.65;;;;;;;;;;5063161;28;20021;-50
2022/03/29 13:27:01;;;;;;;71.28;40.22;;;;;;;;;;5064002;28;20035;-51
2022/03/29 13:29:27;;;;;;;71.97;39.50;;;;;;;;;;5066129;28;20028;-51
2022/03/29 13:31:53;;;;;;;74.18;41.03;;;;;;;;;;5061086;28;20035;-50
2022/03/29 13:34:19;;;;;;;82.18;45.47;;;;;;;;;;5062306;28;20041;-51
2022/03/29 13:36:45;;;;;;;86.45;43.97;;;;;;;;;;5057970;28;20028;-51
2022/03/29 13:39:12;;;;;;;80.57;44.70;;;;;;;;;;5063941;28;20036;-51
2022/03/29 13:41:38;;;;;;;83.40;44.05;;;;;;;;;;5067224;28;20062;-51
2022/03/29 13:44:04;;;;;;;85.38;41.47;;;;;;;;;;5064511;28;20478;-51
2022/03/29 13:46:30;;;;;;;76.75;40.45;;;;;;;;;;5062429;28;20028;-51
2022/03/29 13:48:55;;;;;;;76.95;39.42;;;;;;;;;;5062080;28;20115;-52
2022/03/29 13:51:21;;;;;;;81.28;39.22;;;;;;;;;;5063740;28;20141;-51
2022/03/29 13:53:47;;;;;;;77.22;39.08;;;;;;;;;;5064701;28;20421;-49
2022/03/29 13:56:14;;;;;;;75.30;38.13;;;;;;;;;;5061333;28;20453;-50
2022/03/29 13:58:40;;;;;;;72.28;41.45;;;;;;;;;;5061499;28;20059;-49
2022/03/29 14:01:06;;;;;;;76.28;39.80;;;;;;;;;;5064067;28;20506;-53
2022/03/29 14:03:32;;;;;;;73.15;40.53;;;;;;;;;;5058267;28;20360;-49
2022/03/29 14:06:01;;;;;;;78.63;40.00;;;;;;;;;;5061039;28;20044;-53
2022/03/29 14:08:30;;;;;;;87.32;41.72;;;;;;;;;;5057105;28;20135;-50
2022/03/29 14:10:59;;;;;;;78.63;39.13;;;;;;;;;;5056971;28;20119;-51
2022/03/29 14:13:29;;;;;;;74.97;36.22;;;;;;;;;;5058199;28;20056;-53
2022/03/29 14:15:56;;;;;;;84.05;39.70;;;;;;;;;;5062151;28;20040;-50
2022/03/29 14:18:23;;;;;;;73.43;38.60;;;;;;;;;;5063033;28;20056;-52
2022/03/29 14:20:52;;;;;;;75.18;39.58;;;;;;;;;;5068376;28;20060;-51
2022/03/29 14:23:20;;;;;;;79.88;40.00;;;;;;;;;;5066738;28;20044;-51
2022/03/29 14:25:47;;;;;;;75.43;39.10;;;;;;;;;;5066542;28;20040;-52
2022/03/29 14:28:13;;;;;;;72.25;37.45;;;;;;;;;;5079029;28;20485;-50